Kezdőlap
METAR-TAF:

METAR-TAF

Repülőterek :

Malindi, Kenya

földrajzi szélesség: 03-14S, földrajzi hosszúság: 040-06E, magasság: 20 m

Jelenlegi meteorológiai megfigyelések

A jelentés 5 órával és 35 perccel ezelõtt készült, 18:00 UTC
Déli szél 10 kt
Hőmérséklet 26°C
Páratartalom 84%
Légköri nyomás 1011 hPa
Látótávolság 10 km, vagy több
Szórványos felhőzet 2200 lábon, Tornyos gomolyfelhő.

METAR: HKML 201800Z 19010KT 9999 SCT022TCU 26/23 Q1011 RESHRA

Idő: 02:35 (23:35 UTC)


TAF: hiányzik

Meteorológiai megfigyelések és előrejelzések több, mint 4000 repülőtéren (METAR és TAF jelentéseket).

A térképen piros és sárga pontok jelzik az elérhető meteorológiai állomásokat.

Mozgassa az egeret a pont fölött, hogy megjelenjen az állomás neve.

Azután kattintson az időjárási megfigyelések és előrejelzések megtekintéséhez.

A térkép megváltoztatása: kattintson a fekete keresztel jelölt zöld gombra ráközelítéshez, a vonallal jelölt zöld gombra távolításhoz, vagy a zöld nyilakra a szomszédos térképek eléréséhez.


METAR-TAF: